sensor_id;sensor_type;location;lat;lon;timestamp;temperature;humidity
7502;DHT22;3792;47.740;7.606;2023-05-20T00:00:44;13.50;99.90
7502;DHT22;3792;47.740;7.606;2023-05-20T00:03:13;13.50;99.90
7502;DHT22;3792;47.740;7.606;2023-05-20T00:05:40;13.50;99.90
7502;DHT22;3792;47.740;7.606;2023-05-20T00:08:07;13.60;99.90
7502;DHT22;3792;47.740;7.606;2023-05-20T00:10:35;13.60;99.90
7502;DHT22;3792;47.740;7.606;2023-05-20T00:13:04;13.70;99.90
7502;DHT22;3792;47.740;7.606;2023-05-20T00:15:32;13.70;99.90
7502;DHT22;3792;47.740;7.606;2023-05-20T00:18:01;13.70;99.90
7502;DHT22;3792;47.740;7.606;2023-05-20T00:20:28;13.70;99.90
7502;DHT22;3792;47.740;7.606;2023-05-20T00:22:55;13.70;99.90
7502;DHT22;3792;47.740;7.606;2023-05-20T00:25:22;13.80;99.90
7502;DHT22;3792;47.740;7.606;2023-05-20T00:27:51;13.80;99.90
7502;DHT22;3792;47.740;7.606;2023-05-20T00:30:19;13.80;99.90
7502;DHT22;3792;47.740;7.606;2023-05-20T00:32:47;13.80;99.90
7502;DHT22;3792;47.740;7.606;2023-05-20T00:35:14;13.80;99.90
7502;DHT22;3792;47.740;7.606;2023-05-20T00:37:41;13.90;99.90
7502;DHT22;3792;47.740;7.606;2023-05-20T00:40:09;13.90;99.90
7502;DHT22;3792;47.740;7.606;2023-05-20T00:42:36;13.90;99.90
7502;DHT22;3792;47.740;7.606;2023-05-20T00:45:03;13.90;99.90
7502;DHT22;3792;47.740;7.606;2023-05-20T00:47:33;14.00;99.90
7502;DHT22;3792;47.740;7.606;2023-05-20T00:50:02;14.00;99.90
7502;DHT22;3792;47.740;7.606;2023-05-20T00:52:31;14.00;99.90
7502;DHT22;3792;47.740;7.606;2023-05-20T00:54:59;14.00;99.90
7502;DHT22;3792;47.740;7.606;2023-05-20T00:57:26;14.00;99.90
7502;DHT22;3792;47.740;7.606;2023-05-20T00:59:54;14.00;99.90
7502;DHT22;3792;47.740;7.606;2023-05-20T01:02:22;14.00;99.90
7502;DHT22;3792;47.740;7.606;2023-05-20T01:04:51;14.00;99.90
7502;DHT22;3792;47.740;7.606;2023-05-20T01:07:21;14.00;99.90
7502;DHT22;3792;47.740;7.606;2023-05-20T01:09:48;14.00;99.90
7502;DHT22;3792;47.740;7.606;2023-05-20T01:12:21;14.00;99.90
7502;DHT22;3792;47.740;7.606;2023-05-20T01:14:55;14.00;99.90
7502;DHT22;3792;47.740;7.606;2023-05-20T01:17:26;14.00;99.90
7502;DHT22;3792;47.740;7.606;2023-05-20T01:19:58;14.00;99.90
7502;DHT22;3792;47.740;7.606;2023-05-20T01:22:27;14.00;99.90
7502;DHT22;3792;47.740;7.606;2023-05-20T01:24:55;14.00;99.90
7502;DHT22;3792;47.740;7.606;2023-05-20T01:27:22;14.00;99.90
7502;DHT22;3792;47.740;7.606;2023-05-20T01:29:50;14.00;99.90
7502;DHT22;3792;47.740;7.606;2023-05-20T01:32:20;13.90;99.90
7502;DHT22;3792;47.740;7.606;2023-05-20T01:34:49;13.90;99.90
7502;DHT22;3792;47.740;7.606;2023-05-20T01:37:17;13.80;99.90
7502;DHT22;3792;47.740;7.606;2023-05-20T01:39:48;13.80;99.90
7502;DHT22;3792;47.740;7.606;2023-05-20T01:42:16;13.80;99.90
7502;DHT22;3792;47.740;7.606;2023-05-20T01:44:43;13.80;99.90
7502;DHT22;3792;47.740;7.606;2023-05-20T01:47:10;13.70;99.90
7502;DHT22;3792;47.740;7.606;2023-05-20T01:49:37;13.70;99.90
7502;DHT22;3792;47.740;7.606;2023-05-20T01:52:05;13.70;99.90
7502;DHT22;3792;47.740;7.606;2023-05-20T01:54:32;13.70;99.90
7502;DHT22;3792;47.740;7.606;2023-05-20T01:57:00;13.70;99.90
7502;DHT22;3792;47.740;7.606;2023-05-20T01:59:27;13.70;99.90
7502;DHT22;3792;47.740;7.606;2023-05-20T02:01:54;13.70;99.90
7502;DHT22;3792;47.740;7.606;2023-05-20T02:04:21;13.70;99.90
7502;DHT22;3792;47.740;7.606;2023-05-20T02:06:48;13.60;99.90
7502;DHT22;3792;47.740;7.606;2023-05-20T02:09:17;13.60;99.90
7502;DHT22;3792;47.740;7.606;2023-05-20T02:11:44;13.60;99.90
7502;DHT22;3792;47.740;7.606;2023-05-20T02:14:12;13.60;99.90
7502;DHT22;3792;47.740;7.606;2023-05-20T02:16:39;13.60;99.90
7502;DHT22;3792;47.740;7.606;2023-05-20T02:19:06;13.60;99.90
7502;DHT22;3792;47.740;7.606;2023-05-20T02:21:38;13.60;99.90
7502;DHT22;3792;47.740;7.606;2023-05-20T02:24:05;13.60;99.90
7502;DHT22;3792;47.740;7.606;2023-05-20T02:26:33;13.60;99.90
7502;DHT22;3792;47.740;7.606;2023-05-20T02:29:00;13.60;99.90
7502;DHT22;3792;47.740;7.606;2023-05-20T02:31:28;13.60;99.90
7502;DHT22;3792;47.740;7.606;2023-05-20T02:33:56;13.60;99.90
7502;DHT22;3792;47.740;7.606;2023-05-20T02:36:23;13.60;99.90
7502;DHT22;3792;47.740;7.606;2023-05-20T02:38:50;13.60;99.90
7502;DHT22;3792;47.740;7.606;2023-05-20T02:41:19;13.60;99.90
7502;DHT22;3792;47.740;7.606;2023-05-20T02:43:46;13.60;99.90
7502;DHT22;3792;47.740;7.606;2023-05-20T02:46:13;13.60;99.90
7502;DHT22;3792;47.740;7.606;2023-05-20T02:48:44;13.60;99.90
7502;DHT22;3792;47.740;7.606;2023-05-20T02:51:11;13.60;99.90
7502;DHT22;3792;47.740;7.606;2023-05-20T02:53:38;13.60;99.90
7502;DHT22;3792;47.740;7.606;2023-05-20T02:56:06;13.60;99.90
7502;DHT22;3792;47.740;7.606;2023-05-20T02:58:33;13.60;99.90
7502;DHT22;3792;47.740;7.606;2023-05-20T03:01:00;13.60;99.90
7502;DHT22;3792;47.740;7.606;2023-05-20T03:03:28;13.60;99.90
7502;DHT22;3792;47.740;7.606;2023-05-20T03:05:56;13.70;99.90
7502;DHT22;3792;47.740;7.606;2023-05-20T03:08:23;13.70;99.90
7502;DHT22;3792;47.740;7.606;2023-05-20T03:10:50;13.60;99.90
7502;DHT22;3792;47.740;7.606;2023-05-20T03:13:17;13.60;99.90
7502;DHT22;3792;47.740;7.606;2023-05-20T03:15:44;13.60;99.90
7502;DHT22;3792;47.740;7.606;2023-05-20T03:18:12;13.60;99.90
7502;DHT22;3792;47.740;7.606;2023-05-20T03:20:39;13.60;99.90
7502;DHT22;3792;47.740;7.606;2023-05-20T03:23:08;13.60;99.90
7502;DHT22;3792;47.740;7.606;2023-05-20T03:25:36;13.60;99.90
7502;DHT22;3792;47.740;7.606;2023-05-20T03:28:03;13.60;99.90
7502;DHT22;3792;47.740;7.606;2023-05-20T03:30:31;13.60;99.90
7502;DHT22;3792;47.740;7.606;2023-05-20T03:32:58;13.50;99.90
7502;DHT22;3792;47.740;7.606;2023-05-20T03:35:27;13.50;99.90
7502;DHT22;3792;47.740;7.606;2023-05-20T03:37:55;13.50;99.90
7502;DHT22;3792;47.740;7.606;2023-05-20T03:40:24;13.50;99.90
7502;DHT22;3792;47.740;7.606;2023-05-20T03:42:51;13.50;99.90
7502;DHT22;3792;47.740;7.606;2023-05-20T03:45:18;13.50;99.90
7502;DHT22;3792;47.740;7.606;2023-05-20T03:47:45;13.50;99.90
7502;DHT22;3792;47.740;7.606;2023-05-20T03:50:12;13.50;99.90
7502;DHT22;3792;47.740;7.606;2023-05-20T03:52:39;13.50;99.90
7502;DHT22;3792;47.740;7.606;2023-05-20T03:55:07;13.50;99.90
7502;DHT22;3792;47.740;7.606;2023-05-20T03:57:36;13.50;99.90
7502;DHT22;3792;47.740;7.606;2023-05-20T04:00:03;13.40;99.90
7502;DHT22;3792;47.740;7.606;2023-05-20T04:02:35;13.40;99.90
7502;DHT22;3792;47.740;7.606;2023-05-20T04:05:03;13.40;99.90
7502;DHT22;3792;47.740;7.606;2023-05-20T04:07:33;13.40;99.90
7502;DHT22;3792;47.740;7.606;2023-05-20T04:10:00;13.30;99.90
7502;DHT22;3792;47.740;7.606;2023-05-20T04:12:27;13.30;99.90
7502;DHT22;3792;47.740;7.606;2023-05-20T04:14:57;13.30;99.90
7502;DHT22;3792;47.740;7.606;2023-05-20T04:17:26;13.30;99.90
7502;DHT22;3792;47.740;7.606;2023-05-20T04:19:54;13.30;99.90
7502;DHT22;3792;47.740;7.606;2023-05-20T04:22:22;13.30;99.90
7502;DHT22;3792;47.740;7.606;2023-05-20T04:24:49;13.40;99.90
7502;DHT22;3792;47.740;7.606;2023-05-20T04:27:16;13.40;99.90
7502;DHT22;3792;47.740;7.606;2023-05-20T04:29:45;13.30;99.90
7502;DHT22;3792;47.740;7.606;2023-05-20T04:32:15;13.30;99.90
7502;DHT22;3792;47.740;7.606;2023-05-20T04:34:43;13.30;99.90
7502;DHT22;3792;47.740;7.606;2023-05-20T04:37:10;13.30;99.90
7502;DHT22;3792;47.740;7.606;2023-05-20T04:39:37;13.20;99.90
7502;DHT22;3792;47.740;7.606;2023-05-20T04:42:05;13.30;99.90
7502;DHT22;3792;47.740;7.606;2023-05-20T04:44:32;13.30;99.90
7502;DHT22;3792;47.740;7.606;2023-05-20T04:46:59;13.30;99.90
7502;DHT22;3792;47.740;7.606;2023-05-20T04:49:27;13.40;99.90
7502;DHT22;3792;47.740;7.606;2023-05-20T04:51:55;13.40;99.90
7502;DHT22;3792;47.740;7.606;2023-05-20T04:54:23;13.50;99.90
7502;DHT22;3792;47.740;7.606;2023-05-20T04:56:50;13.50;99.90
7502;DHT22;3792;47.740;7.606;2023-05-20T04:59:18;13.50;99.90
7502;DHT22;3792;47.740;7.606;2023-05-20T05:01:45;13.50;99.90
7502;DHT22;3792;47.740;7.606;2023-05-20T05:04:12;13.50;99.90
7502;DHT22;3792;47.740;7.606;2023-05-20T05:06:40;13.50;99.90
7502;DHT22;3792;47.740;7.606;2023-05-20T05:09:07;13.50;99.90
7502;DHT22;3792;47.740;7.606;2023-05-20T05:11:34;13.60;99.90
7502;DHT22;3792;47.740;7.606;2023-05-20T05:14:01;13.60;99.90
7502;DHT22;3792;47.740;7.606;2023-05-20T05:16:28;13.50;99.90
7502;DHT22;3792;47.740;7.606;2023-05-20T05:18:55;13.50;99.90
7502;DHT22;3792;47.740;7.606;2023-05-20T05:21:22;13.50;99.90
7502;DHT22;3792;47.740;7.606;2023-05-20T05:23:51;13.60;99.90
7502;DHT22;3792;47.740;7.606;2023-05-20T05:26:18;13.60;99.90
7502;DHT22;3792;47.740;7.606;2023-05-20T05:28:45;13.60;99.90
7502;DHT22;3792;47.740;7.606;2023-05-20T05:31:12;13.70;99.90
7502;DHT22;3792;47.740;7.606;2023-05-20T05:33:39;13.70;99.90
7502;DHT22;3792;47.740;7.606;2023-05-20T05:36:06;13.80;99.90
7502;DHT22;3792;47.740;7.606;2023-05-20T05:38:33;13.90;99.90
7502;DHT22;3792;47.740;7.606;2023-05-20T05:41:02;13.90;99.90
7502;DHT22;3792;47.740;7.606;2023-05-20T05:43:29;14.00;99.90
7502;DHT22;3792;47.740;7.606;2023-05-20T05:45:56;14.00;99.90
7502;DHT22;3792;47.740;7.606;2023-05-20T05:48:23;14.00;99.90
7502;DHT22;3792;47.740;7.606;2023-05-20T05:50:50;14.00;99.90
7502;DHT22;3792;47.740;7.606;2023-05-20T05:53:17;14.00;99.90
7502;DHT22;3792;47.740;7.606;2023-05-20T05:55:45;14.10;99.90
7502;DHT22;3792;47.740;7.606;2023-05-20T05:58:14;14.10;99.90
7502;DHT22;3792;47.740;7.606;2023-05-20T06:00:41;14.10;99.90
7502;DHT22;3792;47.740;7.606;2023-05-20T06:03:09;14.20;99.90
7502;DHT22;3792;47.740;7.606;2023-05-20T06:05:36;14.10;99.90
7502;DHT22;3792;47.740;7.606;2023-05-20T06:08:04;14.10;99.90
7502;DHT22;3792;47.740;7.606;2023-05-20T06:10:32;14.10;99.90
7502;DHT22;3792;47.740;7.606;2023-05-20T06:12:59;14.10;99.90
7502;DHT22;3792;47.740;7.606;2023-05-20T06:15:27;14.10;99.90
7502;DHT22;3792;47.740;7.606;2023-05-20T06:17:54;14.10;99.90
7502;DHT22;3792;47.740;7.606;2023-05-20T06:20:21;14.20;99.90
7502;DHT22;3792;47.740;7.606;2023-05-20T06:22:48;14.20;99.90
7502;DHT22;3792;47.740;7.606;2023-05-20T06:25:15;14.20;99.90
7502;DHT22;3792;47.740;7.606;2023-05-20T06:27:47;14.20;99.90
7502;DHT22;3792;47.740;7.606;2023-05-20T06:30:14;14.20;99.90
7502;DHT22;3792;47.740;7.606;2023-05-20T06:32:44;14.30;99.90
7502;DHT22;3792;47.740;7.606;2023-05-20T06:35:11;14.30;99.90
7502;DHT22;3792;47.740;7.606;2023-05-20T06:37:38;14.30;99.90
7502;DHT22;3792;47.740;7.606;2023-05-20T06:40:06;14.30;99.90
7502;DHT22;3792;47.740;7.606;2023-05-20T06:42:34;14.40;99.90
7502;DHT22;3792;47.740;7.606;2023-05-20T06:45:01;14.50;99.90
7502;DHT22;3792;47.740;7.606;2023-05-20T06:47:28;14.50;99.90
7502;DHT22;3792;47.740;7.606;2023-05-20T06:49:56;14.60;99.90
7502;DHT22;3792;47.740;7.606;2023-05-20T06:52:23;14.70;99.90
7502;DHT22;3792;47.740;7.606;2023-05-20T06:54:50;14.60;99.90
7502;DHT22;3792;47.740;7.606;2023-05-20T06:57:17;14.70;99.90
7502;DHT22;3792;47.740;7.606;2023-05-20T06:59:45;14.70;99.90
7502;DHT22;3792;47.740;7.606;2023-05-20T07:02:12;14.70;99.90
7502;DHT22;3792;47.740;7.606;2023-05-20T07:04:39;14.70;99.90
7502;DHT22;3792;47.740;7.606;2023-05-20T07:07:08;14.60;99.90
7502;DHT22;3792;47.740;7.606;2023-05-20T07:09:35;14.60;99.90
7502;DHT22;3792;47.740;7.606;2023-05-20T07:12:02;14.70;99.90
7502;DHT22;3792;47.740;7.606;2023-05-20T07:14:29;14.70;99.90
7502;DHT22;3792;47.740;7.606;2023-05-20T07:16:56;14.80;99.90
7502;DHT22;3792;47.740;7.606;2023-05-20T07:19:24;14.90;99.90
7502;DHT22;3792;47.740;7.606;2023-05-20T07:21:51;14.90;99.90
7502;DHT22;3792;47.740;7.606;2023-05-20T07:24:19;14.90;99.90
7502;DHT22;3792;47.740;7.606;2023-05-20T07:26:46;14.90;99.90
7502;DHT22;3792;47.740;7.606;2023-05-20T07:29:13;14.80;99.90
7502;DHT22;3792;47.740;7.606;2023-05-20T07:31:41;15.00;99.90
7502;DHT22;3792;47.740;7.606;2023-05-20T07:34:08;15.10;99.90
7502;DHT22;3792;47.740;7.606;2023-05-20T07:36:35;15.20;99.90
7502;DHT22;3792;47.740;7.606;2023-05-20T07:39:03;15.30;99.90
7502;DHT22;3792;47.740;7.606;2023-05-20T07:41:31;15.40;99.90
7502;DHT22;3792;47.740;7.606;2023-05-20T07:44:00;15.60;99.90
7502;DHT22;3792;47.740;7.606;2023-05-20T07:46:28;15.70;99.90
7502;DHT22;3792;47.740;7.606;2023-05-20T07:48:55;15.90;99.90
7502;DHT22;3792;47.740;7.606;2023-05-20T07:51:22;16.00;99.90
7502;DHT22;3792;47.740;7.606;2023-05-20T07:53:50;16.20;99.90
7502;DHT22;3792;47.740;7.606;2023-05-20T07:56:17;16.30;99.90
7502;DHT22;3792;47.740;7.606;2023-05-20T07:58:51;16.40;99.90
7502;DHT22;3792;47.740;7.606;2023-05-20T08:01:18;16.50;99.90
7502;DHT22;3792;47.740;7.606;2023-05-20T08:03:45;16.60;99.90
7502;DHT22;3792;47.740;7.606;2023-05-20T08:06:13;16.70;99.90
7502;DHT22;3792;47.740;7.606;2023-05-20T08:08:40;16.80;99.90
7502;DHT22;3792;47.740;7.606;2023-05-20T08:11:07;16.70;99.90
7502;DHT22;3792;47.740;7.606;2023-05-20T08:13:34;16.80;99.90
7502;DHT22;3792;47.740;7.606;2023-05-20T08:16:03;16.70;99.90
7502;DHT22;3792;47.740;7.606;2023-05-20T08:18:33;16.70;99.90
7502;DHT22;3792;47.740;7.606;2023-05-20T08:21:01;16.60;99.90
7502;DHT22;3792;47.740;7.606;2023-05-20T08:23:28;16.60;99.90
7502;DHT22;3792;47.740;7.606;2023-05-20T08:25:55;16.60;99.90
7502;DHT22;3792;47.740;7.606;2023-05-20T08:28:26;16.60;99.90
7502;DHT22;3792;47.740;7.606;2023-05-20T08:30:53;16.70;99.90
7502;DHT22;3792;47.740;7.606;2023-05-20T08:33:21;16.60;99.90
7502;DHT22;3792;47.740;7.606;2023-05-20T08:35:48;16.60;99.90
7502;DHT22;3792;47.740;7.606;2023-05-20T08:38:15;16.70;99.90
7502;DHT22;3792;47.740;7.606;2023-05-20T08:40:42;16.90;99.90
7502;DHT22;3792;47.740;7.606;2023-05-20T08:43:09;16.90;99.90
7502;DHT22;3792;47.740;7.606;2023-05-20T08:45:37;16.90;99.90
7502;DHT22;3792;47.740;7.606;2023-05-20T08:48:05;16.80;99.90
7502;DHT22;3792;47.740;7.606;2023-05-20T08:50:33;16.90;99.90
7502;DHT22;3792;47.740;7.606;2023-05-20T08:53:00;16.90;99.90
7502;DHT22;3792;47.740;7.606;2023-05-20T08:55:34;17.00;99.90
7502;DHT22;3792;47.740;7.606;2023-05-20T08:58:03;17.20;99.90
7502;DHT22;3792;47.740;7.606;2023-05-20T09:00:30;17.40;99.90
7502;DHT22;3792;47.740;7.606;2023-05-20T09:02:58;17.50;99.90
7502;DHT22;3792;47.740;7.606;2023-05-20T09:05:26;17.50;99.90
7502;DHT22;3792;47.740;7.606;2023-05-20T09:08:04;17.50;99.90
7502;DHT22;3792;47.740;7.606;2023-05-20T09:10:31;17.40;99.90
7502;DHT22;3792;47.740;7.606;2023-05-20T09:12:59;17.50;99.90
7502;DHT22;3792;47.740;7.606;2023-05-20T09:15:28;17.60;99.90
7502;DHT22;3792;47.740;7.606;2023-05-20T09:17:55;17.60;99.90
7502;DHT22;3792;47.740;7.606;2023-05-20T09:20:22;17.70;99.90
7502;DHT22;3792;47.740;7.606;2023-05-20T09:22:51;17.70;99.90
7502;DHT22;3792;47.740;7.606;2023-05-20T09:25:21;17.80;99.90
7502;DHT22;3792;47.740;7.606;2023-05-20T09:27:49;17.70;99.90
7502;DHT22;3792;47.740;7.606;2023-05-20T09:30:19;17.70;99.90
7502;DHT22;3792;47.740;7.606;2023-05-20T09:32:52;17.60;99.90
7502;DHT22;3792;47.740;7.606;2023-05-20T09:35:20;17.60;99.90
7502;DHT22;3792;47.740;7.606;2023-05-20T09:37:47;17.50;99.90
7502;DHT22;3792;47.740;7.606;2023-05-20T09:40:17;17.70;99.90
7502;DHT22;3792;47.740;7.606;2023-05-20T09:42:51;17.90;99.90
7502;DHT22;3792;47.740;7.606;2023-05-20T09:45:19;17.90;99.90
7502;DHT22;3792;47.740;7.606;2023-05-20T09:47:46;18.00;99.90
7502;DHT22;3792;47.740;7.606;2023-05-20T09:50:14;18.10;99.90
7502;DHT22;3792;47.740;7.606;2023-05-20T09:52:43;18.30;99.90
7502;DHT22;3792;47.740;7.606;2023-05-20T09:55:10;18.50;99.90
7502;DHT22;3792;47.740;7.606;2023-05-20T09:57:37;18.60;99.90
7502;DHT22;3792;47.740;7.606;2023-05-20T10:00:07;18.70;99.90
7502;DHT22;3792;47.740;7.606;2023-05-20T10:02:36;18.80;99.90
7502;DHT22;3792;47.740;7.606;2023-05-20T10:05:05;18.90;99.90
7502;DHT22;3792;47.740;7.606;2023-05-20T10:07:52;18.80;99.90
7502;DHT22;3792;47.740;7.606;2023-05-20T10:10:32;19.00;99.90
7502;DHT22;3792;47.740;7.606;2023-05-20T10:13:10;19.00;99.90
7502;DHT22;3792;47.740;7.606;2023-05-20T10:15:48;19.00;99.90
7502;DHT22;3792;47.740;7.606;2023-05-20T10:18:35;19.00;99.90
7502;DHT22;3792;47.740;7.606;2023-05-20T10:21:14;19.00;99.90
7502;DHT22;3792;47.740;7.606;2023-05-20T10:23:42;19.10;99.90
7502;DHT22;3792;47.740;7.606;2023-05-20T10:26:09;19.20;99.90
7502;DHT22;3792;47.740;7.606;2023-05-20T10:28:37;19.00;99.90
7502;DHT22;3792;47.740;7.606;2023-05-20T10:31:16;19.10;99.90
7502;DHT22;3792;47.740;7.606;2023-05-20T10:33:44;19.10;99.90
7502;DHT22;3792;47.740;7.606;2023-05-20T10:36:22;18.90;99.90
7502;DHT22;3792;47.740;7.606;2023-05-20T10:38:52;18.90;99.90
7502;DHT22;3792;47.740;7.606;2023-05-20T10:41:21;18.90;99.90
7502;DHT22;3792;47.740;7.606;2023-05-20T10:43:58;19.00;99.90
7502;DHT22;3792;47.740;7.606;2023-05-20T10:46:28;19.20;99.90
7502;DHT22;3792;47.740;7.606;2023-05-20T10:48:55;19.20;99.90
7502;DHT22;3792;47.740;7.606;2023-05-20T10:51:22;19.40;99.90
7502;DHT22;3792;47.740;7.606;2023-05-20T10:53:52;19.40;99.90
7502;DHT22;3792;47.740;7.606;2023-05-20T10:56:22;19.40;99.90
7502;DHT22;3792;47.740;7.606;2023-05-20T10:58:50;19.40;99.90
7502;DHT22;3792;47.740;7.606;2023-05-20T11:01:18;19.50;99.90
7502;DHT22;3792;47.740;7.606;2023-05-20T11:03:48;19.50;99.90
7502;DHT22;3792;47.740;7.606;2023-05-20T11:06:16;19.20;99.90
7502;DHT22;3792;47.740;7.606;2023-05-20T11:08:44;19.20;99.90
7502;DHT22;3792;47.740;7.606;2023-05-20T11:11:12;19.20;99.90
7502;DHT22;3792;47.740;7.606;2023-05-20T11:13:40;19.10;99.90
7502;DHT22;3792;47.740;7.606;2023-05-20T11:16:07;19.10;99.90
7502;DHT22;3792;47.740;7.606;2023-05-20T11:18:34;19.20;99.90
7502;DHT22;3792;47.740;7.606;2023-05-20T11:21:03;19.40;99.90
7502;DHT22;3792;47.740;7.606;2023-05-20T11:23:30;19.70;99.90
7502;DHT22;3792;47.740;7.606;2023-05-20T11:25:58;20.20;99.90
7502;DHT22;3792;47.740;7.606;2023-05-20T11:28:25;20.50;99.90
7502;DHT22;3792;47.740;7.606;2023-05-20T11:30:52;20.50;99.90
7502;DHT22;3792;47.740;7.606;2023-05-20T11:33:24;20.40;99.90
7502;DHT22;3792;47.740;7.606;2023-05-20T11:35:53;20.40;99.90
7502;DHT22;3792;47.740;7.606;2023-05-20T11:38:22;20.50;99.90
7502;DHT22;3792;47.740;7.606;2023-05-20T11:40:51;20.60;99.90
7502;DHT22;3792;47.740;7.606;2023-05-20T11:43:19;20.90;99.90
7502;DHT22;3792;47.740;7.606;2023-05-20T11:45:51;21.00;99.90
7502;DHT22;3792;47.740;7.606;2023-05-20T11:48:19;21.20;99.90
7502;DHT22;3792;47.740;7.606;2023-05-20T11:50:46;21.30;99.90
7502;DHT22;3792;47.740;7.606;2023-05-20T11:53:15;20.90;99.90
7502;DHT22;3792;47.740;7.606;2023-05-20T11:55:48;20.80;99.90
7502;DHT22;3792;47.740;7.606;2023-05-20T11:58:16;20.80;99.90
7502;DHT22;3792;47.740;7.606;2023-05-20T12:00:44;20.50;99.90
7502;DHT22;3792;47.740;7.606;2023-05-20T12:03:11;20.40;99.90
7502;DHT22;3792;47.740;7.606;2023-05-20T12:05:38;20.10;99.90
7502;DHT22;3792;47.740;7.606;2023-05-20T12:08:06;20.10;99.90
7502;DHT22;3792;47.740;7.606;2023-05-20T12:10:33;20.20;99.90
7502;DHT22;3792;47.740;7.606;2023-05-20T12:13:03;20.50;99.90
7502;DHT22;3792;47.740;7.606;2023-05-20T12:15:33;20.60;99.90
7502;DHT22;3792;47.740;7.606;2023-05-20T12:18:00;20.50;99.90
7502;DHT22;3792;47.740;7.606;2023-05-20T12:20:28;20.40;99.90
7502;DHT22;3792;47.740;7.606;2023-05-20T12:22:56;20.40;99.90
7502;DHT22;3792;47.740;7.606;2023-05-20T12:25:24;20.40;99.90
7502;DHT22;3792;47.740;7.606;2023-05-20T12:27:51;20.70;99.90
7502;DHT22;3792;47.740;7.606;2023-05-20T12:30:21;20.90;99.90
7502;DHT22;3792;47.740;7.606;2023-05-20T12:32:49;21.20;99.90
7502;DHT22;3792;47.740;7.606;2023-05-20T12:35:18;21.50;99.90
7502;DHT22;3792;47.740;7.606;2023-05-20T12:37:45;21.80;99.90
7502;DHT22;3792;47.740;7.606;2023-05-20T12:40:12;22.10;99.90
7502;DHT22;3792;47.740;7.606;2023-05-20T12:42:40;22.10;99.90
7502;DHT22;3792;47.740;7.606;2023-05-20T12:45:08;21.80;99.90
7502;DHT22;3792;47.740;7.606;2023-05-20T12:47:36;21.80;99.90
7502;DHT22;3792;47.740;7.606;2023-05-20T12:50:04;21.90;99.90
7502;DHT22;3792;47.740;7.606;2023-05-20T12:52:31;22.00;99.90
7502;DHT22;3792;47.740;7.606;2023-05-20T12:54:58;22.00;99.90
7502;DHT22;3792;47.740;7.606;2023-05-20T12:57:25;22.00;99.90
7502;DHT22;3792;47.740;7.606;2023-05-20T12:59:52;22.20;99.90
7502;DHT22;3792;47.740;7.606;2023-05-20T13:02:19;22.20;99.90
7502;DHT22;3792;47.740;7.606;2023-05-20T13:04:48;22.30;99.90
7502;DHT22;3792;47.740;7.606;2023-05-20T13:07:15;22.10;99.90
7502;DHT22;3792;47.740;7.606;2023-05-20T13:09:43;22.00;99.90
7502;DHT22;3792;47.740;7.606;2023-05-20T13:12:10;22.10;99.90
7502;DHT22;3792;47.740;7.606;2023-05-20T13:14:37;22.00;99.90
7502;DHT22;3792;47.740;7.606;2023-05-20T13:17:04;21.90;99.90
7502;DHT22;3792;47.740;7.606;2023-05-20T13:19:31;21.90;99.90
7502;DHT22;3792;47.740;7.606;2023-05-20T13:22:00;21.70;99.90
7502;DHT22;3792;47.740;7.606;2023-05-20T13:24:27;21.60;99.90
7502;DHT22;3792;47.740;7.606;2023-05-20T13:26:54;21.40;99.90
7502;DHT22;3792;47.740;7.606;2023-05-20T13:29:21;21.30;99.90
7502;DHT22;3792;47.740;7.606;2023-05-20T13:31:48;21.20;99.90
7502;DHT22;3792;47.740;7.606;2023-05-20T13:34:15;21.20;99.90
7502;DHT22;3792;47.740;7.606;2023-05-20T13:36:42;21.20;99.90
7502;DHT22;3792;47.740;7.606;2023-05-20T13:39:11;21.10;99.90
7502;DHT22;3792;47.740;7.606;2023-05-20T13:41:38;21.20;99.90
7502;DHT22;3792;47.740;7.606;2023-05-20T13:44:05;21.20;99.90
7502;DHT22;3792;47.740;7.606;2023-05-20T13:46:33;21.20;99.90
7502;DHT22;3792;47.740;7.606;2023-05-20T13:49:01;21.20;99.90
7502;DHT22;3792;47.740;7.606;2023-05-20T13:51:29;21.00;99.90
7502;DHT22;3792;47.740;7.606;2023-05-20T13:53:56;20.90;99.90
7502;DHT22;3792;47.740;7.606;2023-05-20T13:56:25;20.90;99.90
7502;DHT22;3792;47.740;7.606;2023-05-20T13:58:52;20.90;99.90
7502;DHT22;3792;47.740;7.606;2023-05-20T14:01:19;20.90;99.90
7502;DHT22;3792;47.740;7.606;2023-05-20T14:03:46;20.80;99.90
7502;DHT22;3792;47.740;7.606;2023-05-20T14:06:13;20.80;99.90
7502;DHT22;3792;47.740;7.606;2023-05-20T14:08:43;20.80;99.90
7502;DHT22;3792;47.740;7.606;2023-05-20T14:11:10;20.70;99.90
7502;DHT22;3792;47.740;7.606;2023-05-20T14:13:39;20.70;99.90
7502;DHT22;3792;47.740;7.606;2023-05-20T14:16:06;20.60;99.90
7502;DHT22;3792;47.740;7.606;2023-05-20T14:18:33;20.70;99.90
7502;DHT22;3792;47.740;7.606;2023-05-20T14:21:00;20.60;99.90
7502;DHT22;3792;47.740;7.606;2023-05-20T14:23:27;20.60;99.90
7502;DHT22;3792;47.740;7.606;2023-05-20T14:25:54;20.60;99.90
7502;DHT22;3792;47.740;7.606;2023-05-20T14:28:21;20.60;99.90
7502;DHT22;3792;47.740;7.606;2023-05-20T14:30:49;20.60;99.90
7502;DHT22;3792;47.740;7.606;2023-05-20T14:33:18;20.60;99.90
7502;DHT22;3792;47.740;7.606;2023-05-20T14:35:45;20.60;99.90
7502;DHT22;3792;47.740;7.606;2023-05-20T14:38:12;20.60;99.90
7502;DHT22;3792;47.740;7.606;2023-05-20T14:40:39;20.60;99.90
7502;DHT22;3792;47.740;7.606;2023-05-20T14:43:06;20.60;99.90
7502;DHT22;3792;47.740;7.606;2023-05-20T14:45:33;20.60;99.90
7502;DHT22;3792;47.740;7.606;2023-05-20T14:48:01;20.50;99.90
7502;DHT22;3792;47.740;7.606;2023-05-20T14:50:28;20.40;99.90
7502;DHT22;3792;47.740;7.606;2023-05-20T14:52:55;20.40;99.90
7502;DHT22;3792;47.740;7.606;2023-05-20T14:55:22;20.30;99.90
7502;DHT22;3792;47.740;7.606;2023-05-20T14:57:49;20.30;99.90
7502;DHT22;3792;47.740;7.606;2023-05-20T15:00:16;20.20;99.90
7502;DHT22;3792;47.740;7.606;2023-05-20T15:02:43;20.20;99.90
7502;DHT22;3792;47.740;7.606;2023-05-20T15:05:12;20.20;99.90
7502;DHT22;3792;47.740;7.606;2023-05-20T15:07:39;20.10;99.90
7502;DHT22;3792;47.740;7.606;2023-05-20T15:10:06;20.10;99.90
7502;DHT22;3792;47.740;7.606;2023-05-20T15:12:34;20.10;99.90
7502;DHT22;3792;47.740;7.606;2023-05-20T15:15:01;20.10;99.90
7502;DHT22;3792;47.740;7.606;2023-05-20T15:17:28;20.10;99.90
7502;DHT22;3792;47.740;7.606;2023-05-20T15:19:55;20.20;99.90
7502;DHT22;3792;47.740;7.606;2023-05-20T15:22:24;20.20;99.90
7502;DHT22;3792;47.740;7.606;2023-05-20T15:24:51;20.20;99.90
7502;DHT22;3792;47.740;7.606;2023-05-20T15:27:18;20.20;99.90
7502;DHT22;3792;47.740;7.606;2023-05-20T15:29:45;20.30;99.90
7502;DHT22;3792;47.740;7.606;2023-05-20T15:32:13;20.30;99.90
7502;DHT22;3792;47.740;7.606;2023-05-20T15:34:40;20.30;99.90
7502;DHT22;3792;47.740;7.606;2023-05-20T15:37:07;20.30;99.90
7502;DHT22;3792;47.740;7.606;2023-05-20T15:39:37;20.30;99.90
7502;DHT22;3792;47.740;7.606;2023-05-20T15:42:04;20.30;99.90
7502;DHT22;3792;47.740;7.606;2023-05-20T15:44:32;20.30;99.90
7502;DHT22;3792;47.740;7.606;2023-05-20T15:47:00;20.30;99.90
7502;DHT22;3792;47.740;7.606;2023-05-20T15:49:30;20.20;99.90
7502;DHT22;3792;47.740;7.606;2023-05-20T15:51:57;20.10;99.90
7502;DHT22;3792;47.740;7.606;2023-05-20T15:54:26;20.10;99.90
7502;DHT22;3792;47.740;7.606;2023-05-20T15:56:55;20.00;99.90
7502;DHT22;3792;47.740;7.606;2023-05-20T15:59:23;20.00;99.90
7502;DHT22;3792;47.740;7.606;2023-05-20T16:01:50;20.00;99.90
7502;DHT22;3792;47.740;7.606;2023-05-20T16:04:18;19.90;99.90
7502;DHT22;3792;47.740;7.606;2023-05-20T16:06:45;19.90;99.90